EGKK/LGW METAR and TAF weather

Enter ICAO airport designator
Station Type Date Time Source
EGKK METAR 2019/12/13 14:20 UTC NOAA

EGKK 131420Z 27015KT 9999 BKN034 08/02 Q0984


Station Type Date Time Source
EGKK Decoded METAR 2019/12/13 14:20 UTC NOAA

London / Gatwick Airport, United Kingdom (EGKK) 51-09N 000-11W 0M
Dec 13, 2019 - 09:20 AM EST / 2019.12.13 1420 UTC
Wind: from the W (270 degrees) at 17 MPH (15 KT):0
Visibility: greater than 7 mile(s):0
Sky conditions: mostly cloudy
Temperature: 46 F (8 C)
Dew Point: 35 F (2 C)
Relative Humidity: 65%
Pressure (altimeter): 29.06 in. Hg (0984 hPa)
ob: EGKK 131420Z 27015KT 9999 BKN034 08/02 Q0984
cycle: 14

Station Type Date Time Source
EGKK TAF 2019/12/13 12:09 UTC NOAA

TAF EGKK 131100Z 1312/1418 28015KT 9999 SCT030
TEMPO 1312/1318 28018G28KT PROB30
TEMPO 1402/1409 25018G28KT
TEMPO 1409/1414 25018G28KT 8000 -SHRA BKN010
BECMG 1415/1418 22010KT

Example: see airport list